Latest Weather Observations for Little Bay

IDN60801

Issued at 3:35 am EDT Saturday 1 November 2014 (issued every 30 minutes, with the page automatically refreshed every 10 minutes)

About weather observations | Map of weather stations | Latest weather observations for NSW | Other Formats
Station Details ID: 066051 Name: LITTLE BAY (THE COAST GOLF CLUB) Lat: -33.98 Lon: 151.25 Height: 22.0 m
Data from the previous 72 hours. | See also: Recent months for locations in New South Wales
Date/Time
EDT
Temp
°C
App
Temp
°C
Dew
Point
Rel
Hum
%
Delta-T
°C
Wind Press
QNH
hPa
Press
MSL
hPa
Rain
since 9 am
mm
Dir
 
Spd
km/h
Gust
km/h
Spd
kts
Gust
kts
01/03:30am - - - - - NNW 11 17 6 9 - - -
01/03:00am - - - - - NW 13 20 7 11 - - -
01/02:30am - - - - - WNW 15 28 8 15 - - -
01/02:00am - - - - - WNW 13 24 7 13 - - -
01/01:30am - - - - - N 9 19 5 10 - - -
01/01:00am - - - - - N 15 20 8 11 - - -
01/12:30am - - - - - N 19 28 10 15 - - -
01/12:00am - - - - - N 17 24 9 13 - - -
 
Date/Time
EDT
Temp
°C
App
Temp
°C
Dew
Point
Rel
Hum
%
Delta-T
°C
Wind Press
QNH
hPa
Press
MSL
hPa
Rain
since 9 am
mm
Dir
 
Spd
km/h
Gust
km/h
Spd
kts
Gust
kts
31/11:30pm - - - - - N 20 30 11 16 - - -
31/11:00pm - - - - - NNE 26 35 14 19 - - -
31/10:30pm - - - - - NNE 26 32 14 17 - - -
31/10:00pm - - - - - NNE 26 35 14 19 - - -
31/09:30pm - - - - - NNE 26 35 14 19 - - -
31/09:00pm - - - - - NNE 24 33 13 18 - - -
31/08:30pm - - - - - NNE 24 32 13 17 - - -
31/08:00pm - - - - - NNE 26 32 14 17 - - -
31/07:30pm - - - - - NNE 24 32 13 17 - - -
31/07:00pm - - - - - NNE 28 35 15 19 - - -
31/06:30pm - - - - - NNE 26 33 14 18 - - -
31/06:00pm - - - - - NNE 30 41 16 22 - - -
31/05:30pm - - - - - NNE 32 44 17 24 - - -
31/05:00pm - - - - - NNE 30 39 16 21 - - -
31/04:30pm - - - - - NNE 33 44 18 24 - - -
31/04:00pm - - - - - NNE 26 32 14 17 - - -
31/03:30pm - - - - - NNE 26 35 14 19 - - -
31/03:00pm - - - - - NNE 24 33 13 18 - - -
31/02:30pm - - - - - NNE 22 30 12 16 - - -
31/02:00pm - - - - - NNE 24 32 13 17 - - -
31/01:30pm - - - - - NNE 22 30 12 16 - - -
31/01:00pm - - - - - NE 22 28 12 15 - - -
31/12:30pm - - - - - NE 20 24 11 13 - - -
31/12:00pm - - - - - ENE 9 13 5 7 - - -
31/11:30am - - - - - NE 9 15 5 8 - - -
31/11:00am - - - - - ENE 7 9 4 5 - - -
31/10:30am - - - - - NNE 7 11 4 6 - - -
31/10:00am - - - - - W 6 9 3 5 - - -
31/09:30am - - - - - W 9 15 5 8 - - -
31/09:00am - - - - - SW 9 11 5 6 - - -
31/08:30am - - - - - W 6 11 3 6 - - -
31/08:00am - - - - - W 7 9 4 5 - - -
31/07:30am - - - - - W 9 13 5 7 - - -
31/07:00am - - - - - W 9 11 5 6 - - -
31/06:30am - - - - - W 6 7 3 4 - - -
31/06:00am - - - - - W 6 7 3 4 - - -
31/05:30am - - - - - WSW 7 11 4 6 - - -
31/05:00am - - - - - SW 9 13 5 7 - - -
31/04:30am - - - - - SSW 7 11 4 6 - - -
31/04:00am - - - - - SSW 7 11 4 6 - - -
31/03:30am - - - - - SSW 7 11 4 6 - - -
31/03:00am - - - - - SSW 9 13 5 7 - - -
31/02:30am - - - - - SSW 9 13 5 7 - - -
31/02:00am - - - - - CALM 0 0 0 0 - - -
31/01:30am - - - - - WNW 4 4 2 2 - - -
31/01:00am - - - - - NW 2 6 1 3 - - -
31/12:30am - - - - - N 9 15 5 8 - - -
31/12:00am - - - - - N 11 17 6 9 - - -
 
Date/Time
EDT
Temp
°C
App
Temp
°C
Dew
Point
Rel
Hum
%
Delta-T
°C
Wind Press
QNH
hPa
Press
MSL
hPa
Rain
since 9 am
mm
Dir
 
Spd
km/h
Gust
km/h
Spd
kts
Gust
kts
30/11:30pm - - - - - N 9 13 5 7 - - -
30/11:00pm - - - - - NNE 6 7 3 4 - - -
30/10:30pm - - - - - N 4 7 2 4 - - -
30/10:00pm - - - - - NNE 11 17 6 9 - - -
30/09:30pm - - - - - NE 13 19 7 10 - - -
30/09:00pm - - - - - NNE 17 24 9 13 - - -
30/08:30pm - - - - - NNE 19 24 10 13 - - -
30/08:00pm - - - - - NNE 17 22 9 12 - - -
30/07:30pm - - - - - NNE 17 22 9 12 - - -
30/07:00pm - - - - - NNE 19 24 10 13 - - -
30/06:30pm - - - - - ENE 17 26 9 14 - - -
30/06:00pm - - - - - N 26 33 14 18 - - -
30/05:30pm - - - - - N 24 33 13 18 - - -
30/05:00pm - - - - - N 26 35 14 19 - - -
30/04:30pm - - - - - N 20 30 11 16 - - -
30/04:00pm - - - - - N 22 30 12 16 - - -
30/03:30pm - - - - - N 19 26 10 14 - - -
30/03:00pm - - - - - N 15 20 8 11 - - -
30/02:30pm - - - - - NNE 13 22 7 12 - - -
30/02:00pm - - - - - NNE 15 22 8 12 - - -
30/01:30pm - - - - - NE 15 20 8 11 - - -
30/01:00pm - - - - - NE 15 20 8 11 - - -
30/12:30pm - - - - - NNE 19 22 10 12 - - -
30/12:00pm - - - - - NE 13 20 7 11 - - -
30/11:30am - - - - - NE 9 15 5 8 - - -
30/11:00am - - - - - E 7 11 4 6 - - -
30/10:30am - - - - - NE 6 11 3 6 - - -
30/10:00am - - - - - W 7 15 4 8 - - -
30/09:30am - - - - - W 9 15 5 8 - - -
30/09:00am - - - - - W 11 17 6 9 - - -
30/08:30am - - - - - W 11 15 6 8 - - -
30/08:00am - - - - - W 9 15 5 8 - - -
30/07:30am - - - - - WNW 7 13 4 7 - - -
30/07:00am - - - - - WNW 6 9 3 5 - - -
30/06:30am - - - - - WNW 7 9 4 5 - - -
30/06:00am - - - - - WNW 6 7 3 4 - - -
30/05:30am - - - - - WNW 7 9 4 5 - - -
30/05:00am - - - - - WNW 7 7 4 4 - - -
30/04:30am - - - - - WNW 6 7 3 4 - - -
30/04:00am - - - - - WNW 4 6 2 3 - - -
30/03:30am - - - - - NW 7 9 4 5 - - -
30/03:00am - - - - - WNW 4 7 2 4 - - -
30/02:30am - - - - - NNW 6 7 3 4 - - -
30/02:00am - - - - - N 7 11 4 6 - - -
30/01:30am - - - - - N 11 17 6 9 - - -
30/01:00am - - - - - N 11 19 6 10 - - -
30/12:30am - - - - - N 13 22 7 12 - - -
30/12:00am - - - - - N 11 15 6 8 - - -
 
Date/Time
EDT
Temp
°C
App
Temp
°C
Dew
Point
Rel
Hum
%
Delta-T
°C
Wind Press
QNH
hPa
Press
MSL
hPa
Rain
since 9 am
mm
Dir
 
Spd
km/h
Gust
km/h
Spd
kts
Gust
kts
29/11:30pm - - - - - N 15 22 8 12 - - -
29/11:00pm - - - - - NNE 17 24 9 13 - - -
29/10:30pm - - - - - NNE 19 24 10 13 - - -
29/10:00pm - - - - - NNE 19 26 10 14 - - -
29/09:30pm - - - - - NNE 17 22 9 12 - - -
29/09:00pm - - - - - NNE 17 20 9 11 - - -
29/08:30pm - - - - - NNE 19 24 10 13 - - -
29/08:00pm - - - - - NNE 19 24 10 13 - - -
29/07:30pm - - - - - NE 17 24 9 13 - - -
29/07:00pm - - - - - NE 17 22 9 12 - - -
29/06:30pm - - - - - NE 17 24 9 13 - - -
29/06:00pm - - - - - ENE 20 28 11 15 - - -
29/05:30pm - - - - - ENE 20 28 11 15 - - -
29/05:00pm - - - - - ENE 22 28 12 15 - - -
29/04:30pm - - - - - ENE 19 24 10 13 - - -
29/04:00pm - - - - - ENE 20 28 11 15 - - -
29/03:30pm - - - - - ENE 20 28 11 15 - - -
29/03:00pm - - - - - ENE 20 28 11 15 - - -
29/02:30pm - - - - - ENE 20 28 11 15 - - -
29/02:00pm - - - - - ENE 19 24 10 13 - - -
29/01:30pm - - - - - E 20 26 11 14 - - -
29/01:00pm - - - - - E 19 20 10 11 - - -
29/12:30pm - - - - - E 13 19 7 10 - - -
29/12:00pm - - - - - SE 13 19 7 10 - - -
29/11:30am - - - - - SSE 15 17 8 9 - - -
29/11:00am - - - - - S 13 17 7 9 - - -
29/10:30am - - - - - S 17 22 9 12 - - -
29/10:00am - - - - - S 20 24 11 13 - - -
29/09:30am - - - - - S 20 26 11 14 - - -
29/09:00am - - - - - S 11 17 6 9 - - -
29/08:30am - - - - - W 11 17 6 9 - - -
29/08:00am - - - - - W 13 17 7 9 - - -
29/07:30am - - - - - W 11 15 6 8 - - -
29/07:00am - - - - - W 9 11 5 6 - - -
29/06:30am - - - - - WSW 6 11 3 6 - - -
29/06:00am - - - - - W 4 7 2 4 - - -
29/05:30am - - - - - W 7 9 4 5 - - -
29/05:00am - - - - - W 7 13 4 7 - - -
29/04:30am - - - - - W 7 9 4 5 - - -
29/04:00am - - - - - W 9 13 5 7 - - -

Other Formats:

Comma delimited format used in spreadsheet applications
http://www.bom.gov.au/fwo/IDN60801/IDN60801.94780.axf

JavaScript Object Notation format (JSON) in row-major order
http://www.bom.gov.au/fwo/IDN60801/IDN60801.94780.json